Time;durP1;ratioP1;P1;durP2;ratioP2;P2;SDS_P1;SDS_P2;PMS_P1;PMS_P2;Temp;Humidity;BMP_temperature;BMP_pressure;BME280_temperature;BME280_humidity;BME280_pressure;Samples;Min_cycle;Max_cycle;Signal;HPM_P1;HPM_P2
2023/01/24 03:02:09;;;;;;;28.00;25.10;;;2.10;99.90;;;;;;5264415;23;20587;-78
2023/01/24 03:04:36;;;;;;;32.83;26.13;;;2.10;99.90;;;;;;4960522;28;20461;-78
2023/01/24 03:07:03;;;;;;;29.40;26.23;;;2.10;99.90;;;;;;4958080;28;20935;-77
2023/01/24 03:09:35;;;;;;;30.67;27.37;;;2.10;99.90;;;;;;4982084;28;21177;-78
2023/01/24 03:36:56;;;;;;;29.37;26.17;;;2.10;99.90;;;;;;4961413;28;20674;-78
2023/01/24 03:42:07;;;;;;;32.67;27.13;;;2.10;99.90;;;;;;4980686;28;20462;-77
2023/01/24 03:44:34;;;;;;;31.77;27.13;;;2.10;99.90;;;;;;4964159;28;20850;-78
2023/01/24 03:47:01;;;;;;;31.07;26.73;;;2.10;99.90;;;;;;4962807;28;20194;-77
2023/01/24 03:52:27;;;;;;;32.90;27.17;;;2.10;99.90;;;;;;4955951;28;20467;-82
2023/01/24 03:54:54;;;;;;;31.43;26.23;;;2.10;99.90;;;;;;4955438;28;20503;-82
2023/01/24 03:57:21;;;;;;;31.10;26.73;;;2.10;99.90;;;;;;4977707;28;20199;-83
2023/01/24 03:59:49;;;;;;;31.77;26.93;;;2.10;99.90;;;;;;4968185;28;20202;-80
2023/01/24 04:02:17;;;;;;;29.90;26.07;;;2.10;99.90;;;;;;4973545;28;20237;-82
2023/01/24 04:07:31;;;;;;;30.70;26.60;;;2.10;99.90;;;;;;4954431;28;20205;-81
2023/01/24 04:10:02;;;;;;;31.40;27.60;;;2.10;99.90;;;;;;4962720;28;20537;-82
2023/01/24 04:12:34;;;;;;;32.67;27.27;;;2.10;99.90;;;;;;4969401;28;20465;-81
2023/01/24 04:15:02;;;;;;;30.67;26.10;;;2.10;99.90;;;;;;4982046;28;20190;-80
2023/01/24 04:17:29;;;;;;;30.57;27.00;;;2.10;99.90;;;;;;4980516;28;20538;-82
2023/01/24 04:19:58;;;;;;;32.37;28.77;;;2.10;99.90;;;;;;4979766;28;20198;-84
2023/01/24 04:22:27;;;;;;;30.70;27.27;;;2.20;99.90;;;;;;4977237;28;20242;-83
2023/01/24 04:24:57;;;;;;;30.47;26.00;;;2.20;99.90;;;;;;4969358;28;20218;-82
2023/01/24 04:27:27;;;;;;;34.33;27.57;;;2.20;99.90;;;;;;4973909;28;20460;-82
2023/01/24 04:30:21;;;;;;;31.83;26.63;;;2.20;99.90;;;;;;4952878;28;20218;-79
2023/01/24 04:32:51;;;;;;;28.97;24.97;;;2.20;99.90;;;;;;4962053;28;20685;-78
2023/01/24 04:35:26;;;;;;;33.03;27.57;;;2.20;99.90;;;;;;4980977;28;20901;-77
2023/01/24 04:37:59;;;;;;;29.30;26.30;;;2.20;99.90;;;;;;4963186;28;20578;-78
2023/01/24 04:40:36;;;;;;;29.83;26.43;;;2.20;99.90;;;;;;4971496;28;20191;-78
2023/01/24 04:43:03;;;;;;;29.80;26.57;;;2.20;99.90;;;;;;4964786;28;20453;-78
2023/01/24 04:45:30;;;;;;;32.13;27.30;;;2.20;99.90;;;;;;4965873;28;20475;-78
2023/01/24 04:47:58;;;;;;;28.43;25.40;;;2.20;99.90;;;;;;4974657;28;20199;-77
2023/01/24 04:50:27;;;;;;;29.60;26.40;;;2.20;99.90;;;;;;4966485;28;20900;-80
2023/01/24 04:52:55;;;;;;;31.07;26.37;;;2.20;99.90;;;;;;4964451;28;20469;-77
2023/01/24 04:55:23;;;;;;;30.43;26.70;;;2.20;99.90;;;;;;4985891;28;20980;-77
2023/01/24 04:57:52;;;;;;;30.73;27.43;;;2.20;99.90;;;;;;4983600;28;20454;-79
2023/01/24 05:00:20;;;;;;;31.53;28.27;;;2.10;99.90;;;;;;4986260;28;20458;-78
2023/01/24 05:02:47;;;;;;;31.50;28.00;;;2.10;99.90;;;;;;4983617;28;20465;-80
2023/01/24 05:05:16;;;;;;;34.37;27.43;;;2.20;99.90;;;;;;4962953;28;20558;-79
2023/01/24 05:07:44;;;;;;;32.47;28.43;;;2.10;99.90;;;;;;4963999;28;20461;-78
2023/01/24 05:10:16;;;;;;;31.53;26.13;;;2.10;99.90;;;;;;4982968;28;20456;-79
2023/01/24 05:12:47;;;;;;;29.03;26.00;;;2.10;99.90;;;;;;4966958;28;20939;-79
2023/01/24 05:15:21;;;;;;;33.43;27.63;;;2.20;99.90;;;;;;4967622;28;20206;-77
2023/01/24 05:17:48;;;;;;;30.87;27.40;;;2.10;99.90;;;;;;4957827;28;20267;-78
2023/01/24 05:20:19;;;;;;;33.33;27.33;;;2.10;99.90;;;;;;4984100;28;20211;-78
2023/01/24 05:22:48;;;;;;;35.47;28.23;;;2.10;99.90;;;;;;4978442;28;20316;-79
2023/01/24 05:25:16;;;;;;;29.53;26.43;;;2.10;99.90;;;;;;4974630;28;20508;-78
2023/01/24 05:27:44;;;;;;;32.70;27.80;;;2.10;99.90;;;;;;4983699;28;20461;-78
2023/01/24 05:30:12;;;;;;;31.43;28.03;;;2.20;99.90;;;;;;4980902;28;20454;-78
2023/01/24 05:32:39;;;;;;;36.67;28.57;;;2.10;99.90;;;;;;4967844;28;20988;-79
2023/01/24 05:35:07;;;;;;;31.30;27.90;;;2.20;99.90;;;;;;4967469;28;20194;-78
2023/01/24 05:37:37;;;;;;;32.60;28.77;;;2.20;99.90;;;;;;4963579;28;20456;-77
2023/01/24 05:40:07;;;;;;;34.13;29.00;;;2.10;99.90;;;;;;4956393;28;20637;-79
2023/01/24 05:42:34;;;;;;;35.07;29.10;;;2.10;99.90;;;;;;4978337;28;20994;-78
2023/01/24 05:45:01;;;;;;;35.93;30.97;;;2.10;99.90;;;;;;4968130;28;20465;-77
2023/01/24 05:47:28;;;;;;;33.07;29.47;;;2.10;99.90;;;;;;4957407;28;20544;-78
2023/01/24 05:49:55;;;;;;;33.57;29.80;;;2.10;99.90;;;;;;4980521;28;20828;-80
2023/01/24 05:52:22;;;;;;;32.10;28.70;;;2.10;99.90;;;;;;4984717;28;20613;-79
2023/01/24 05:54:53;;;;;;;36.10;30.60;;;2.10;99.90;;;;;;4980736;28;20859;-78
2023/01/24 05:57:31;;;;;;;31.63;28.30;;;2.10;99.90;;;;;;4972507;28;20228;-78
2023/01/24 06:00:21;;;;;;;32.30;28.80;;;2.10;99.90;;;;;;4967657;28;20504;-80
2023/01/24 06:03:14;;;;;;;39.23;31.17;;;2.10;99.90;;;;;;4968024;28;20712;-80
2023/01/24 06:05:46;;;;;;;38.00;31.30;;;2.10;99.90;;;;;;4987661;28;20553;-79
2023/01/24 06:08:13;;;;;;;32.57;29.00;;;2.10;99.90;;;;;;4966970;28;20449;-79
2023/01/24 06:10:40;;;;;;;34.93;29.80;;;2.10;99.90;;;;;;4966178;28;20244;-77
2023/01/24 06:13:13;;;;;;;37.03;29.50;;;2.10;99.90;;;;;;4962795;28;20206;-78
2023/01/24 06:15:40;;;;;;;40.30;29.67;;;2.10;99.90;;;;;;4964034;28;20202;-78
2023/01/24 06:18:15;;;;;;;34.60;29.07;;;2.10;99.90;;;;;;4965515;28;20446;-78
2023/01/24 06:20:44;;;;;;;35.10;29.60;;;2.10;99.90;;;;;;4966612;28;20845;-81
2023/01/24 06:23:18;;;;;;;33.63;28.73;;;2.10;99.90;;;;;;4963141;28;20545;-79
2023/01/24 06:25:46;;;;;;;33.90;30.17;;;2.10;99.90;;;;;;4964845;28;20473;-78
2023/01/24 06:28:15;;;;;;;37.00;30.90;;;2.10;99.90;;;;;;4967222;28;20434;-79
2023/01/24 06:30:46;;;;;;;35.60;30.87;;;2.10;99.90;;;;;;4965964;28;20226;-79
2023/01/24 06:33:25;;;;;;;37.53;31.17;;;2.10;99.90;;;;;;4967256;28;20508;-77
2023/01/24 06:36:19;;;;;;;37.97;30.10;;;2.10;99.90;;;;;;4980895;28;20457;-78
2023/01/24 06:38:47;;;;;;;34.97;30.13;;;2.10;99.90;;;;;;4956798;28;20209;-78
2023/01/24 06:41:16;;;;;;;41.67;31.53;;;2.10;99.90;;;;;;4958565;28;20521;-77
2023/01/24 06:43:45;;;;;;;37.07;32.13;;;2.00;99.90;;;;;;4967967;28;20206;-79
2023/01/24 06:46:13;;;;;;;37.83;29.63;;;2.00;99.90;;;;;;4963394;28;20266;-78
2023/01/24 06:48:44;;;;;;;37.40;30.57;;;2.10;99.90;;;;;;4980036;28;20230;-78
2023/01/24 06:51:13;;;;;;;41.17;31.33;;;2.10;99.90;;;;;;4964046;28;20224;-78
2023/01/24 06:53:40;;;;;;;34.20;29.73;;;2.10;99.90;;;;;;4963382;28;20198;-78
2023/01/24 06:56:08;;;;;;;37.70;30.10;;;2.10;99.90;;;;;;4965510;28;20485;-78
2023/01/24 06:58:35;;;;;;;39.63;30.87;;;2.10;99.90;;;;;;4963444;28;20231;-77
2023/01/24 07:01:03;;;;;;;39.47;31.37;;;2.10;99.90;;;;;;4963631;28;20560;-79
2023/01/24 07:03:30;;;;;;;36.73;30.80;;;2.10;99.90;;;;;;4955120;28;20453;-80
2023/01/24 07:05:57;;;;;;;35.60;31.47;;;2.10;99.90;;;;;;4971189;28;20221;-79
2023/01/24 07:08:24;;;;;;;35.03;30.33;;;2.10;99.90;;;;;;4966360;28;20213;-78
2023/01/24 07:10:51;;;;;;;36.87;28.27;;;2.10;99.90;;;;;;4966235;28;20227;-80
2023/01/24 07:13:18;;;;;;;33.23;28.57;;;2.10;99.90;;;;;;4969282;28;20484;-81
2023/01/24 07:15:45;;;;;;;33.53;29.20;;;2.10;99.90;;;;;;4983467;28;20195;-77
2023/01/24 07:18:16;;;;;;;32.33;27.83;;;2.10;99.90;;;;;;4969360;28;20198;-79
2023/01/24 07:20:43;;;;;;;35.13;29.20;;;2.10;99.90;;;;;;4966916;28;20512;-79
2023/01/24 07:23:24;;;;;;;32.27;28.27;;;2.10;99.90;;;;;;4970427;28;20429;-81
2023/01/24 07:25:52;;;;;;;35.70;29.57;;;2.20;99.90;;;;;;4969056;28;20248;-79
2023/01/24 07:28:19;;;;;;;32.10;28.20;;;2.10;99.90;;;;;;4965372;28;20203;-80
2023/01/24 07:30:46;;;;;;;35.10;29.40;;;2.10;99.90;;;;;;4965351;28;20214;-80
2023/01/24 07:33:15;;;;;;;34.60;29.33;;;2.20;99.90;;;;;;4968065;28;20213;-78
2023/01/24 07:35:42;;;;;;;36.43;29.53;;;2.20;99.90;;;;;;4965339;28;20187;-78
2023/01/24 07:38:11;;;;;;;34.93;29.13;;;2.20;99.90;;;;;;4948766;28;20250;-78
2023/01/24 07:40:39;;;;;;;32.67;28.60;;;2.20;99.90;;;;;;4981614;28;20203;-83
2023/01/24 07:43:06;;;;;;;32.07;28.53;;;2.20;99.90;;;;;;4985487;28;20199;-82
2023/01/24 07:45:34;;;;;;;33.20;29.13;;;2.20;99.90;;;;;;4972632;28;20225;-82
2023/01/24 07:48:02;;;;;;;30.10;26.97;;;2.20;99.90;;;;;;4982169;28;20195;-84
2023/01/24 07:50:31;;;;;;;31.00;27.70;;;2.20;99.90;;;;;;4964417;28;20210;-83
2023/01/24 07:52:58;;;;;;;34.43;28.87;;;2.30;99.90;;;;;;4981365;28;20302;-80
2023/01/24 07:55:26;;;;;;;35.43;29.30;;;2.30;99.90;;;;;;4958560;28;20647;-81
2023/01/24 07:57:58;;;;;;;31.13;27.83;;;2.30;99.90;;;;;;4975077;28;20221;-82
2023/01/24 08:00:24;;;;;;;32.37;28.07;;;2.30;99.90;;;;;;4964365;28;20202;-80
2023/01/24 08:02:51;;;;;;;30.90;27.70;;;2.30;99.90;;;;;;4959330;28;20203;-81
2023/01/24 08:05:18;;;;;;;31.27;27.23;;;2.30;99.90;;;;;;4965252;28;20229;-81
2023/01/24 08:07:46;;;;;;;32.20;27.77;;;2.40;99.90;;;;;;4977420;28;20198;-80
2023/01/24 08:10:13;;;;;;;31.57;26.63;;;2.40;99.90;;;;;;4957284;28;20250;-81
2023/01/24 08:12:40;;;;;;;31.47;28.00;;;2.40;99.90;;;;;;4964656;28;20225;-81
2023/01/24 08:15:08;;;;;;;29.03;25.93;;;2.40;99.90;;;;;;4960534;28;20238;-82
2023/01/24 08:17:36;;;;;;;30.77;27.13;;;2.40;99.90;;;;;;4966049;28;20558;-82
2023/01/24 08:20:04;;;;;;;29.83;26.43;;;2.50;99.90;;;;;;4981476;28;20664;-81
2023/01/24 08:22:31;;;;;;;29.03;26.00;;;2.50;99.90;;;;;;4968299;28;20229;-82
2023/01/24 08:24:59;;;;;;;29.87;26.40;;;2.50;99.90;;;;;;4966737;28;20218;-83
2023/01/24 08:27:26;;;;;;;27.47;24.60;;;2.50;99.90;;;;;;4962179;28;20198;-83
2023/01/24 08:29:52;;;;;;;27.93;24.97;;;2.50;99.90;;;;;;4969414;28;20198;-80
2023/01/24 08:32:19;;;;;;;29.97;27.00;;;2.60;99.90;;;;;;4964556;28;20227;-81
2023/01/24 08:34:46;;;;;;;28.87;25.97;;;2.60;99.90;;;;;;4981142;28;20233;-81
2023/01/24 08:37:13;;;;;;;28.37;25.60;;;2.60;99.90;;;;;;4966827;28;20249;-81
2023/01/24 08:39:40;;;;;;;30.33;27.03;;;2.60;99.90;;;;;;4965082;28;21069;-82
2023/01/24 08:42:08;;;;;;;27.37;24.67;;;2.70;99.90;;;;;;4976490;28;20246;-82
2023/01/24 08:44:35;;;;;;;28.40;25.40;;;2.80;99.90;;;;;;4969019;28;20257;-79
2023/01/24 08:47:02;;;;;;;26.83;24.23;;;2.80;99.90;;;;;;4956221;28;20279;-80
2023/01/24 08:49:28;;;;;;;27.43;24.63;;;2.80;99.90;;;;;;4957198;28;20218;-84
2023/01/24 08:51:58;;;;;;;26.37;23.77;;;2.80;99.90;;;;;;4961407;28;20277;-79
2023/01/24 08:54:25;;;;;;;26.90;24.10;;;2.90;99.90;;;;;;4967626;28;20194;-78
2023/01/24 08:56:52;;;;;;;26.43;23.77;;;2.90;99.90;;;;;;4964836;28;20226;-79
2023/01/24 08:59:20;;;;;;;27.43;24.40;;;2.80;99.90;;;;;;4966761;28;20202;-78
2023/01/24 09:01:47;;;;;;;26.33;23.63;;;2.80;99.90;;;;;;4963924;28;20293;-78
2023/01/24 09:04:14;;;;;;;26.10;23.30;;;2.80;99.90;;;;;;4965779;28;20206;-79
2023/01/24 09:06:41;;;;;;;25.73;22.97;;;2.90;99.90;;;;;;4966388;28;20693;-79
2023/01/24 09:09:07;;;;;;;24.93;22.50;;;2.80;99.90;;;;;;4962693;28;20198;-80
2023/01/24 09:11:34;;;;;;;24.93;22.47;;;2.90;99.90;;;;;;4965392;28;20218;-82
2023/01/24 09:14:01;;;;;;;25.93;23.37;;;2.90;99.90;;;;;;4967356;28;20195;-84
2023/01/24 09:16:29;;;;;;;24.87;22.40;;;3.00;99.90;;;;;;4981780;28;20675;-81
2023/01/24 09:18:56;;;;;;;24.90;22.50;;;3.00;99.90;;;;;;4969186;28;20253;-78
2023/01/24 09:21:23;;;;;;;25.30;22.80;;;3.00;99.90;;;;;;4954471;28;20228;-78
2023/01/24 09:23:50;;;;;;;26.37;22.93;;;3.00;99.90;;;;;;4971970;28;20199;-77
2023/01/24 09:26:19;;;;;;;25.57;23.00;;;3.00;99.90;;;;;;4962754;28;20274;-78
2023/01/24 09:28:49;;;;;;;26.10;22.73;;;3.00;99.90;;;;;;4974012;28;20807;-78
2023/01/24 09:31:16;;;;;;;25.30;22.50;;;3.00;99.90;;;;;;4987092;28;20221;-77
2023/01/24 09:33:44;;;;;;;25.43;22.43;;;3.10;99.90;;;;;;4983384;28;20265;-77
2023/01/24 09:36:11;;;;;;;25.13;22.47;;;3.10;99.90;;;;;;4988427;28;20262;-78
2023/01/24 09:38:39;;;;;;;25.23;22.70;;;3.20;99.90;;;;;;4969920;28;20230;-77
2023/01/24 09:41:14;;;;;;;24.03;21.53;;;3.20;99.90;;;;;;4965169;28;20237;-78
2023/01/24 09:43:46;;;;;;;25.40;22.70;;;3.30;99.90;;;;;;4957945;28;20212;-77
2023/01/24 09:46:21;;;;;;;25.00;22.53;;;3.20;99.90;;;;;;4967427;28;20593;-78
2023/01/24 09:48:58;;;;;;;26.03;22.67;;;3.20;99.90;;;;;;4968465;28;20193;-77
2023/01/24 09:51:30;;;;;;;26.37;23.57;;;3.20;99.90;;;;;;4967155;28;20226;-79
2023/01/24 09:54:06;;;;;;;24.90;22.40;;;3.20;99.90;;;;;;4974143;28;20281;-84
2023/01/24 09:56:37;;;;;;;24.73;22.30;;;3.20;99.90;;;;;;4963086;28;20218;-84
2023/01/24 09:59:17;;;;;;;24.13;21.70;;;3.30;99.90;;;;;;4967057;28;20190;-83
2023/01/24 10:01:44;;;;;;;24.77;22.37;;;3.30;99.90;;;;;;4961482;28;20289;-83
2023/01/24 10:04:16;;;;;;;24.73;22.23;;;3.30;99.90;;;;;;4982250;28;20256;-83
2023/01/24 10:06:57;;;;;;;23.37;21.10;;;3.40;99.90;;;;;;4983686;28;20284;-83
2023/01/24 10:09:33;;;;;;;25.50;22.87;;;3.40;99.90;;;;;;4971370;28;20372;-82
2023/01/24 10:12:07;;;;;;;24.87;22.27;;;3.40;99.90;;;;;;4970717;28;20314;-82
2023/01/24 10:14:45;;;;;;;25.40;22.87;;;3.30;99.90;;;;;;4963963;28;20200;-83
2023/01/24 10:17:41;;;;;;;25.37;22.70;;;3.30;99.90;;;;;;4971481;28;20202;-83
2023/01/24 10:20:20;;;;;;;25.47;22.87;;;3.30;99.90;;;;;;4968209;28;20194;-82
2023/01/24 10:23:01;;;;;;;24.17;21.83;;;3.30;99.90;;;;;;4970104;28;20194;-82
2023/01/24 10:25:34;;;;;;;23.77;21.47;;;3.30;99.90;;;;;;4973942;28;20664;-82
2023/01/24 10:28:02;;;;;;;24.23;21.83;;;3.40;99.90;;;;;;4966128;28;20241;-81
2023/01/24 10:30:37;;;;;;;26.03;23.00;;;3.40;99.90;;;;;;4955453;28;20203;-82
2023/01/24 10:33:10;;;;;;;25.23;22.63;;;3.40;99.90;;;;;;4960821;28;20195;-81
2023/01/24 10:35:51;;;;;;;24.60;22.20;;;3.30;99.90;;;;;;4954386;28;20722;-77
2023/01/24 10:38:19;;;;;;;24.33;21.93;;;3.30;99.90;;;;;;4946715;28;20210;-78
2023/01/24 10:40:50;;;;;;;23.20;20.83;;;3.30;99.90;;;;;;4942313;28;20274;-77
2023/01/24 10:43:18;;;;;;;23.73;21.47;;;3.40;99.90;;;;;;4957029;28;20210;-76
2023/01/24 10:45:52;;;;;;;25.23;22.73;;;3.40;99.90;;;;;;4952218;28;20309;-76
2023/01/24 10:48:32;;;;;;;22.73;20.63;;;3.40;99.90;;;;;;4943940;28;20211;-79
2023/01/24 10:51:12;;;;;;;22.63;20.43;;;3.50;99.90;;;;;;4955604;28;20279;-78
2023/01/24 10:53:39;;;;;;;23.63;21.43;;;3.60;99.90;;;;;;4953125;28;20210;-79
2023/01/24 10:56:07;;;;;;;23.97;21.67;;;3.60;99.90;;;;;;4945335;28;20201;-78
2023/01/24 10:58:36;;;;;;;23.70;21.50;;;3.60;99.90;;;;;;4946404;28;20195;-79
2023/01/24 11:01:07;;;;;;;22.93;20.73;;;3.60;99.90;;;;;;4955186;28;20230;-78
2023/01/24 11:03:38;;;;;;;25.40;22.87;;;3.60;99.90;;;;;;4953701;28;20698;-77
2023/01/24 11:06:05;;;;;;;23.73;21.53;;;3.60;99.90;;;;;;4941567;28;20218;-78
2023/01/24 11:08:36;;;;;;;25.60;23.03;;;3.60;99.90;;;;;;4945297;28;20701;-79
2023/01/24 11:11:17;;;;;;;24.60;22.33;;;3.60;99.90;;;;;;4952177;28;20723;-77
2023/01/24 11:13:45;;;;;;;24.13;21.83;;;3.60;99.90;;;;;;4959754;28;20565;-78
2023/01/24 11:16:22;;;;;;;25.47;23.03;;;3.70;99.90;;;;;;4965994;28;20226;-78
2023/01/24 11:18:52;;;;;;;23.27;21.07;;;3.60;99.90;;;;;;4961168;28;20195;-77
2023/01/24 11:21:20;;;;;;;23.33;21.23;;;3.70;99.90;;;;;;4979709;28;20631;-77
2023/01/24 11:24:01;;;;;;;24.17;21.67;;;3.80;99.90;;;;;;4966363;28;20202;-78
2023/01/24 11:26:29;;;;;;;24.00;21.67;;;3.70;99.90;;;;;;4961537;28;20219;-77
2023/01/24 11:28:59;;;;;;;24.60;22.23;;;3.80;99.90;;;;;;4962818;28;20198;-78
2023/01/24 11:31:33;;;;;;;23.27;21.00;;;3.80;99.90;;;;;;4966966;28;20221;-77
2023/01/24 11:34:21;;;;;;;23.23;20.93;;;3.80;99.90;;;;;;4966774;28;20578;-77
2023/01/24 11:37:00;;;;;;;23.83;21.43;;;3.80;99.90;;;;;;4961738;28;20203;-77
2023/01/24 11:39:39;;;;;;;23.37;20.90;;;3.80;99.90;;;;;;4950304;28;20212;-77
2023/01/24 11:42:16;;;;;;;22.73;20.73;;;3.80;99.90;;;;;;4964765;28;20463;-77
2023/01/24 11:45:15;;;;;;;23.60;21.43;;;3.80;99.90;;;;;;4978364;28;20250;-77
2023/01/24 11:47:49;;;;;;;23.23;21.03;;;3.80;99.90;;;;;;4957553;28;20483;-77
2023/01/24 11:50:29;;;;;;;23.30;21.03;;;3.80;99.90;;;;;;4963630;28;20206;-77
2023/01/24 11:53:17;;;;;;;22.30;20.07;;;3.90;99.90;;;;;;4964276;28;20198;-77
2023/01/24 11:55:57;;;;;;;23.90;21.63;;;3.90;99.90;;;;;;4977194;28;20674;-77
2023/01/24 11:58:39;;;;;;;22.57;20.43;;;3.90;99.90;;;;;;4967349;28;20222;-77
2023/01/24 12:01:15;;;;;;;22.97;20.77;;;3.90;99.90;;;;;;4987014;28;20229;-77
2023/01/24 12:04:08;;;;;;;22.13;20.10;;;3.90;99.90;;;;;;4966799;28;20253;-77
2023/01/24 12:06:45;;;;;;;23.57;21.27;;;4.00;99.90;;;;;;4974425;28;20222;-77
2023/01/24 12:09:21;;;;;;;22.87;20.77;;;4.00;99.90;;;;;;4966609;28;20201;-77
2023/01/24 12:11:59;;;;;;;22.60;20.60;;;4.00;99.90;;;;;;4970872;28;20217;-78
2023/01/24 12:14:52;;;;;;;22.77;20.50;;;4.00;99.90;;;;;;4966730;28;20262;-78
2023/01/24 12:17:32;;;;;;;22.73;20.73;;;3.90;99.90;;;;;;4968953;28;20249;-78
2023/01/24 12:20:31;;;;;;;22.33;20.27;;;3.90;99.90;;;;;;4967375;28;20198;-77
2023/01/24 12:23:04;;;;;;;22.00;20.00;;;3.90;99.90;;;;;;4926819;28;20257;-77
2023/01/24 12:25:34;;;;;;;21.43;19.53;;;4.00;99.90;;;;;;4956587;28;20558;-77
2023/01/24 12:28:07;;;;;;;23.00;20.93;;;4.00;99.90;;;;;;4968496;28;20233;-77
2023/01/24 12:30:38;;;;;;;23.13;20.93;;;3.90;99.90;;;;;;4969968;28;20543;-77
2023/01/24 12:33:14;;;;;;;22.97;20.87;;;4.00;99.90;;;;;;4966730;28;20195;-77
2023/01/24 12:35:45;;;;;;;21.33;19.27;;;3.90;99.90;;;;;;4968496;28;20205;-80
2023/01/24 12:38:19;;;;;;;21.73;19.67;;;4.00;99.90;;;;;;4967754;28;20202;-80
2023/01/24 12:40:52;;;;;;;22.03;20.03;;;3.90;99.90;;;;;;4965284;28;20218;-80
2023/01/24 12:43:30;;;;;;;21.97;19.87;;;3.90;99.90;;;;;;4984101;28;20297;-77
2023/01/24 12:46:05;;;;;;;21.33;19.43;;;3.90;99.90;;;;;;4969661;28;20198;-79
2023/01/24 12:48:40;;;;;;;21.17;19.30;;;4.00;99.90;;;;;;4964369;28;20201;-78
2023/01/24 12:51:17;;;;;;;21.33;19.17;;;4.00;99.90;;;;;;4960962;28;20281;-77
2023/01/24 12:53:58;;;;;;;21.87;19.70;;;4.00;99.90;;;;;;4967581;28;20670;-78
2023/01/24 12:56:32;;;;;;;21.57;19.63;;;4.00;99.90;;;;;;4965933;28;20572;-78
2023/01/24 12:59:01;;;;;;;21.20;19.40;;;4.00;99.90;;;;;;4965960;28;20190;-78
2023/01/24 13:02:02;;;;;;;21.93;19.93;;;4.10;99.90;;;;;;4951000;28;20280;-78
2023/01/24 13:04:42;;;;;;;20.63;18.83;;;4.10;99.90;;;;;;4929638;28;20225;-77
2023/01/24 13:07:18;;;;;;;21.47;19.43;;;4.10;99.90;;;;;;4967235;28;20448;-78
2023/01/24 13:09:53;;;;;;;20.43;18.63;;;4.10;99.90;;;;;;4977847;28;20264;-77
2023/01/24 13:12:23;;;;;;;21.27;19.27;;;4.10;99.90;;;;;;4965106;28;20245;-78
2023/01/24 13:14:56;;;;;;;20.53;18.60;;;4.00;99.90;;;;;;4981471;28;20267;-78
2023/01/24 13:17:44;;;;;;;20.80;18.97;;;4.00;99.90;;;;;;4960682;28;20202;-77
2023/01/24 13:20:25;;;;;;;20.17;18.37;;;4.00;99.90;;;;;;4962142;28;20206;-78
2023/01/24 13:23:07;;;;;;;21.53;19.63;;;4.00;99.90;;;;;;4979345;28;20262;-78
2023/01/24 13:25:58;;;;;;;21.60;19.60;;;4.00;99.90;;;;;;4957967;28;20569;-79
2023/01/24 13:28:34;;;;;;;21.47;19.57;;;4.00;99.90;;;;;;4967216;28;20264;-78
2023/01/24 13:31:13;;;;;;;20.40;18.57;;;4.00;99.90;;;;;;4962544;28;20221;-78
2023/01/24 13:33:47;;;;;;;20.93;19.23;;;4.00;99.90;;;;;;4958528;28;20195;-78
2023/01/24 13:36:19;;;;;;;21.40;19.37;;;4.10;99.90;;;;;;4964642;28;20561;-78
2023/01/24 13:38:46;;;;;;;19.93;18.23;;;4.10;99.90;;;;;;4980124;28;20221;-77
2023/01/24 13:41:18;;;;;;;20.97;18.93;;;4.10;99.90;;;;;;4980505;28;20222;-78
2023/01/24 13:44:01;;;;;;;20.63;18.73;;;4.10;99.90;;;;;;4961372;28;20634;-78
2023/01/24 13:47:04;;;;;;;20.03;18.33;;;4.10;99.90;;;;;;4964450;28;20629;-78
2023/01/24 13:49:38;;;;;;;21.80;19.73;;;4.00;99.90;;;;;;4956124;28;20194;-78
2023/01/24 13:52:40;;;;;;;19.67;17.97;;;4.00;99.90;;;;;;4967042;28;20277;-78
2023/01/24 13:55:49;;;;;;;21.80;19.63;;;3.90;99.90;;;;;;4978300;28;20198;-79
2023/01/24 13:58:20;;;;;;;19.90;18.30;;;3.90;99.90;;;;;;4963368;28;20210;-78
2023/01/24 14:00:51;;;;;;;19.87;18.20;;;3.90;99.90;;;;;;4967774;28;20221;-78
2023/01/24 14:03:23;;;;;;;21.63;19.57;;;3.90;99.90;;;;;;4962600;28;20207;-79
2023/01/24 14:06:06;;;;;;;21.60;19.60;;;3.90;99.90;;;;;;4963970;28;20195;-79
2023/01/24 14:08:51;;;;;;;20.73;18.83;;;3.90;99.90;;;;;;4958388;28;20285;-78
2023/01/24 14:11:31;;;;;;;21.53;19.63;;;3.90;99.90;;;;;;4965786;28;20309;-77
2023/01/24 14:14:22;;;;;;;22.67;20.63;;;3.90;99.90;;;;;;4962824;28;20190;-78
2023/01/24 14:17:32;;;;;;;20.93;19.10;;;3.90;99.90;;;;;;4959611;28;20191;-77
2023/01/24 14:20:01;;;;;;;21.13;19.17;;;3.90;99.90;;;;;;4964500;28;20206;-79
2023/01/24 14:22:37;;;;;;;21.27;19.30;;;3.90;99.90;;;;;;4954931;28;20225;-78
2023/01/24 14:25:20;;;;;;;21.77;19.87;;;3.80;99.90;;;;;;4960800;28;20258;-77
2023/01/24 14:27:50;;;;;;;22.07;20.00;;;3.80;99.90;;;;;;4968381;28;20206;-80
2023/01/24 14:30:33;;;;;;;20.43;18.70;;;3.90;99.90;;;;;;4979528;28;20214;-82
2023/01/24 14:33:06;;;;;;;20.67;18.87;;;3.90;99.90;;;;;;4962586;28;20207;-78
2023/01/24 14:35:48;;;;;;;20.33;18.63;;;3.90;99.90;;;;;;4956019;28;20210;-79
2023/01/24 14:38:17;;;;;;;20.67;18.77;;;4.00;99.90;;;;;;4962118;28;20206;-81
2023/01/24 14:40:48;;;;;;;20.43;18.57;;;3.90;99.90;;;;;;4957086;28;20249;-84
2023/01/24 14:43:15;;;;;;;21.30;19.20;;;3.90;99.90;;;;;;4972948;28;20206;-83
2023/01/24 14:45:42;;;;;;;20.37;18.67;;;3.90;99.90;;;;;;4980805;28;20257;-83
2023/01/24 14:48:11;;;;;;;21.43;19.47;;;3.90;99.90;;;;;;4984132;28;20248;-81
2023/01/24 14:50:39;;;;;;;21.17;19.27;;;3.80;99.90;;;;;;4970661;28;20202;-81
2023/01/24 14:53:25;;;;;;;22.17;20.17;;;3.80;99.90;;;;;;4969319;28;20253;-81
2023/01/24 14:55:53;;;;;;;22.33;20.23;;;3.80;99.90;;;;;;4967279;28;20213;-81
2023/01/24 14:58:22;;;;;;;21.57;19.67;;;3.80;99.90;;;;;;4973762;28;20671;-81
2023/01/24 15:00:50;;;;;;;22.80;20.73;;;3.80;99.90;;;;;;4970537;28;20294;-83
2023/01/24 15:03:23;;;;;;;22.33;20.50;;;3.70;99.90;;;;;;4991701;28;20587;-81
2023/01/24 15:05:56;;;;;;;22.57;20.33;;;3.70;99.90;;;;;;4981691;28;20293;-79
2023/01/24 15:08:26;;;;;;;21.47;19.43;;;3.70;99.90;;;;;;4984440;28;20308;-79
2023/01/24 15:10:57;;;;;;;21.47;19.27;;;3.70;99.90;;;;;;4967607;28;20226;-79
2023/01/24 15:13:31;;;;;;;20.93;18.87;;;3.70;99.90;;;;;;4967541;28;20204;-78
2023/01/24 15:15:59;;;;;;;20.80;19.00;;;3.70;99.90;;;;;;4954612;28;20544;-79
2023/01/24 15:18:37;;;;;;;21.57;19.57;;;3.70;99.90;;;;;;4956490;28;20277;-79
2023/01/24 15:21:06;;;;;;;22.40;20.30;;;3.70;99.90;;;;;;4975821;28;20281;-78
2023/01/24 15:23:33;;;;;;;21.63;19.53;;;3.70;99.90;;;;;;4967291;28;20659;-79
2023/01/24 15:26:21;;;;;;;22.63;20.47;;;3.70;99.90;;;;;;4956841;28;20203;-78
2023/01/24 15:28:48;;;;;;;22.27;20.10;;;3.70;99.90;;;;;;4950651;28;20718;-78
2023/01/24 15:31:20;;;;;;;22.03;19.90;;;3.70;99.90;;;;;;4963614;28;20267;-77
2023/01/24 15:33:53;;;;;;;22.27;20.13;;;3.70;99.90;;;;;;4965415;28;20210;-79
2023/01/24 15:36:25;;;;;;;21.37;19.47;;;3.70;99.90;;;;;;4967452;28;20211;-78
2023/01/24 15:38:54;;;;;;;22.83;20.93;;;3.60;99.90;;;;;;4967690;28;20256;-78
2023/01/24 15:41:23;;;;;;;21.77;19.93;;;3.70;99.90;;;;;;4962631;28;20326;-78
2023/01/24 15:43:58;;;;;;;23.73;21.43;;;3.60;99.90;;;;;;4968149;28;20205;-78
2023/01/24 15:49:32;;;;;;;22.03;19.90;;;3.60;99.90;;;;;;4980593;28;20687;-79
2023/01/24 15:52:03;;;;;;;23.33;21.33;;;3.60;99.90;;;;;;4983976;28;20600;-79
2023/01/24 15:54:30;;;;;;;21.37;19.47;;;3.60;99.90;;;;;;4958805;28;20202;-79
2023/01/24 15:57:00;;;;;;;23.10;20.90;;;3.60;99.90;;;;;;4967872;28;20221;-78
2023/01/24 15:59:27;;;;;;;23.33;21.17;;;3.60;99.90;;;;;;4978188;28;20682;-80
2023/01/24 16:01:54;;;;;;;22.00;20.10;;;3.60;99.90;;;;;;4971127;28;20269;-79
2023/01/24 16:04:23;;;;;;;21.67;19.83;;;3.60;99.90;;;;;;4980093;28;20206;-80
2023/01/24 16:06:53;;;;;;;20.57;18.77;;;3.60;99.90;;;;;;4958607;28;20297;-77
2023/01/24 16:09:21;;;;;;;21.80;19.67;;;3.60;99.90;;;;;;4970584;28;20281;-76
2023/01/24 16:11:49;;;;;;;22.67;20.53;;;3.60;99.90;;;;;;4978385;28;20230;-77
2023/01/24 16:14:19;;;;;;;22.80;20.40;;;3.60;99.90;;;;;;4968939;28;20288;-78
2023/01/24 16:16:47;;;;;;;23.00;20.80;;;3.50;99.90;;;;;;4977517;28;20202;-78
2023/01/24 16:19:17;;;;;;;22.37;20.33;;;3.50;99.90;;;;;;4984578;28;20765;-77
2023/01/24 16:21:43;;;;;;;22.90;20.73;;;3.50;99.90;;;;;;4961499;28;20226;-77
2023/01/24 16:24:11;;;;;;;23.37;20.80;;;3.50;99.90;;;;;;4962596;28;20203;-77
2023/01/24 16:26:41;;;;;;;22.93;20.83;;;3.50;99.90;;;;;;4968074;28;20195;-79
2023/01/24 16:29:14;;;;;;;21.90;19.93;;;3.40;99.90;;;;;;4964676;28;20218;-80
2023/01/24 16:31:41;;;;;;;22.23;20.17;;;3.50;99.90;;;;;;4987839;28;20309;-79
2023/01/24 16:34:08;;;;;;;24.27;21.97;;;3.50;99.90;;;;;;4963918;28;20257;-82
2023/01/24 16:36:35;;;;;;;23.57;21.23;;;3.50;99.90;;;;;;4953289;28;20203;-81
2023/01/24 16:39:02;;;;;;;23.73;21.23;;;3.50;99.90;;;;;;4958966;28;20756;-81